createdAt,value
2018-08-16T00:01:01.182Z,3.80
2018-08-16T00:03:29.700Z,4.17
2018-08-16T00:05:58.169Z,4.00
2018-08-16T00:08:26.677Z,4.33
2018-08-16T00:10:55.144Z,4.30
2018-08-16T00:13:23.688Z,4.40
2018-08-16T00:15:52.172Z,4.40
2018-08-16T00:18:20.726Z,3.93
2018-08-16T00:20:49.224Z,4.53
2018-08-16T00:23:17.712Z,3.60
2018-08-16T00:25:46.201Z,3.70
2018-08-16T00:28:14.688Z,3.33
2018-08-16T00:30:43.192Z,4.20
2018-08-16T00:33:11.684Z,3.73
2018-08-16T00:35:40.157Z,3.50
2018-08-16T00:38:08.704Z,4.10
2018-08-16T00:40:37.243Z,4.07
2018-08-16T00:43:05.916Z,5.33
2018-08-16T00:45:34.444Z,4.50
2018-08-16T00:48:02.968Z,4.43
2018-08-16T00:50:31.430Z,4.33
2018-08-16T00:52:59.976Z,4.17
2018-08-16T00:55:28.508Z,4.90
2018-08-16T00:57:56.985Z,4.20
2018-08-16T01:00:25.580Z,4.73
2018-08-16T01:02:54.053Z,4.20
2018-08-16T01:05:22.677Z,4.70
2018-08-16T01:07:51.186Z,5.10
2018-08-16T01:10:21.122Z,4.93
2018-08-16T01:12:49.611Z,4.40
2018-08-16T01:15:18.080Z,4.30
2018-08-16T01:17:46.555Z,3.87
2018-08-16T01:20:15.091Z,4.20
2018-08-16T01:22:43.790Z,3.90
2018-08-16T01:25:12.500Z,4.50
2018-08-16T01:27:41.108Z,3.57
2018-08-16T01:30:10.283Z,4.07
2018-08-16T01:32:38.802Z,3.87
2018-08-16T01:35:08.232Z,4.10
2018-08-16T01:37:36.816Z,3.40
2018-08-16T01:40:05.620Z,3.77
2018-08-16T01:42:34.090Z,3.20
2018-08-16T01:45:02.696Z,3.60
2018-08-16T01:47:31.180Z,3.70
2018-08-16T01:49:59.678Z,3.90
2018-08-16T01:52:28.184Z,4.03
2018-08-16T01:54:56.734Z,4.17
2018-08-16T01:57:25.220Z,4.00
2018-08-16T01:59:53.720Z,4.13
2018-08-16T02:02:22.225Z,5.43
2018-08-16T02:04:50.781Z,4.30
2018-08-16T02:07:19.294Z,4.80
2018-08-16T02:09:47.760Z,4.27
2018-08-16T02:12:16.294Z,5.00
2018-08-16T02:14:44.935Z,4.83
2018-08-16T02:17:13.449Z,4.80
2018-08-16T02:19:41.941Z,4.73
2018-08-16T02:22:10.627Z,4.70
2018-08-16T02:24:39.122Z,4.83
2018-08-16T02:27:07.606Z,5.17
2018-08-16T02:29:36.073Z,4.97
2018-08-16T02:32:04.620Z,4.80
2018-08-16T02:34:33.117Z,5.17
2018-08-16T02:37:01.625Z,4.93
2018-08-16T02:39:30.092Z,5.10
2018-08-16T02:41:58.584Z,5.07
2018-08-16T02:44:27.088Z,5.90
2018-08-16T02:46:55.565Z,5.63
2018-08-16T02:49:24.024Z,5.03
2018-08-16T02:51:52.543Z,5.00
2018-08-16T02:54:21.047Z,4.77
2018-08-16T02:56:49.523Z,4.97
2018-08-16T02:59:18.092Z,5.20
2018-08-16T03:01:46.637Z,5.43
2018-08-16T03:04:15.217Z,5.17
2018-08-16T03:06:43.773Z,5.23
2018-08-16T03:09:12.273Z,5.17
2018-08-16T03:11:40.780Z,5.10
2018-08-16T03:14:09.219Z,5.23
2018-08-16T03:16:37.715Z,5.00
2018-08-16T03:19:13.530Z,4.90
2018-08-16T03:21:42.014Z,5.27
2018-08-16T03:24:10.448Z,5.20
2018-08-16T03:26:38.950Z,5.03
2018-08-16T03:29:07.389Z,4.93
2018-08-16T03:31:35.917Z,5.00
2018-08-16T03:34:04.378Z,5.00
2018-08-16T03:36:32.883Z,4.83
2018-08-16T03:39:01.341Z,4.40
2018-08-16T03:41:29.830Z,4.90
2018-08-16T03:43:58.300Z,4.93
2018-08-16T03:46:26.768Z,4.47
2018-08-16T03:48:55.284Z,4.03
2018-08-16T03:51:23.765Z,4.93
2018-08-16T03:53:52.217Z,4.63
2018-08-16T03:56:20.704Z,4.80
2018-08-16T03:58:49.157Z,5.37
2018-08-16T04:01:17.625Z,4.57
2018-08-16T04:03:46.136Z,4.80
2018-08-16T04:06:14.604Z,4.70
2018-08-16T04:08:43.149Z,4.93
2018-08-16T04:11:11.600Z,5.20
2018-08-16T04:13:40.089Z,4.87
2018-08-16T04:16:08.621Z,4.90
2018-08-16T04:18:37.097Z,5.40
2018-08-16T04:21:05.536Z,5.40
2018-08-16T04:23:34.145Z,5.20
2018-08-16T04:26:02.623Z,5.50
2018-08-16T04:28:31.118Z,5.33
2018-08-16T04:30:59.589Z,5.03
2018-08-16T04:33:28.075Z,5.10
2018-08-16T04:35:56.564Z,5.00
2018-08-16T04:38:25.051Z,6.90
2018-08-16T04:40:53.524Z,6.80
2018-08-16T04:43:22.045Z,6.17
2018-08-16T04:45:50.515Z,6.57
2018-08-16T04:48:19.039Z,6.40
2018-08-16T04:50:47.489Z,6.50
2018-08-16T04:53:15.985Z,6.50
2018-08-16T04:55:44.473Z,6.10
2018-08-16T04:58:12.949Z,6.20
2018-08-16T05:00:41.402Z,6.63
2018-08-16T05:03:09.872Z,5.90
2018-08-16T05:05:38.347Z,6.23
2018-08-16T05:08:06.811Z,6.53
2018-08-16T05:10:35.264Z,6.87
2018-08-16T05:13:03.796Z,7.13
2018-08-16T05:15:32.262Z,6.80
2018-08-16T05:18:00.796Z,7.33
2018-08-16T05:20:29.265Z,7.43
2018-08-16T05:22:57.824Z,6.47
2018-08-16T05:25:26.252Z,7.37
2018-08-16T05:27:54.760Z,7.87
2018-08-16T05:30:23.241Z,8.90
2018-08-16T05:32:51.764Z,8.43
2018-08-16T05:35:20.228Z,8.73
2018-08-16T05:37:48.717Z,10.90
2018-08-16T05:40:17.220Z,10.67
2018-08-16T05:42:45.692Z,11.27
2018-08-16T05:45:14.188Z,10.23
2018-08-16T05:47:42.719Z,9.50
2018-08-16T05:50:12.452Z,9.47
2018-08-16T05:52:41.468Z,9.67
2018-08-16T05:55:09.940Z,9.57
2018-08-16T05:57:39.076Z,8.90
2018-08-16T06:00:09.461Z,8.30
2018-08-16T06:02:37.947Z,8.03
2018-08-16T06:05:06.796Z,8.07
2018-08-16T06:07:35.646Z,7.87
2018-08-16T06:10:04.603Z,7.43
2018-08-16T06:12:33.136Z,7.80
2018-08-16T06:15:02.166Z,10.03
2018-08-16T06:17:30.632Z,20.97
2018-08-16T06:19:59.168Z,17.67
2018-08-16T06:22:27.685Z,18.50
2018-08-16T06:24:56.141Z,13.03
2018-08-16T06:27:24.620Z,19.33
2018-08-16T06:29:53.104Z,16.00
2018-08-16T06:32:21.639Z,27.43
2018-08-16T06:34:50.120Z,16.70
2018-08-16T06:37:18.609Z,13.10
2018-08-16T06:39:47.115Z,15.90
2018-08-16T06:42:15.696Z,12.77
2018-08-16T06:44:44.152Z,12.00
2018-08-16T06:47:15.118Z,12.43
2018-08-16T06:49:44.333Z,15.17
2018-08-16T06:52:12.972Z,11.87
2018-08-16T06:54:41.478Z,10.53
2018-08-16T06:57:09.966Z,10.63
2018-08-16T06:59:38.432Z,8.80
2018-08-16T07:02:06.883Z,8.73
2018-08-16T07:04:35.408Z,8.90
2018-08-16T07:07:03.967Z,8.77
2018-08-16T07:09:32.490Z,8.47
2018-08-16T07:12:01.021Z,9.70
2018-08-16T07:14:29.471Z,8.00
2018-08-16T07:16:57.931Z,9.63
2018-08-16T07:19:26.412Z,7.83
2018-08-16T07:21:54.873Z,7.73
2018-08-16T07:24:23.411Z,8.53
2018-08-16T07:26:51.862Z,8.30
2018-08-16T07:29:20.340Z,8.30
2018-08-16T07:31:48.812Z,9.07
2018-08-16T07:34:17.304Z,8.77
2018-08-16T07:36:45.760Z,8.17
2018-08-16T07:39:14.241Z,8.77
2018-08-16T07:41:42.739Z,8.57
2018-08-16T07:44:11.232Z,10.00
2018-08-16T07:46:39.681Z,10.53
2018-08-16T07:49:08.220Z,9.80
2018-08-16T07:51:36.829Z,9.50
2018-08-16T07:54:05.212Z,10.13
2018-08-16T07:56:33.679Z,9.53
2018-08-16T07:59:02.168Z,8.83
2018-08-16T08:01:30.664Z,8.07
2018-08-16T08:04:00.064Z,7.73
2018-08-16T08:06:28.584Z,7.97
2018-08-16T08:08:57.079Z,6.90
2018-08-16T08:11:25.544Z,6.83
2018-08-16T08:13:54.064Z,6.70
2018-08-16T08:16:22.520Z,5.97
2018-08-16T08:18:51.006Z,5.23
2018-08-16T08:21:19.489Z,5.77
2018-08-16T08:23:47.993Z,5.70
2018-08-16T08:26:16.466Z,5.80
2018-08-16T08:28:44.932Z,5.90
2018-08-16T08:31:13.409Z,5.03
2018-08-16T08:33:41.917Z,5.40
2018-08-16T08:36:16.039Z,5.50
2018-08-16T08:38:44.599Z,5.50
2018-08-16T08:41:13.106Z,5.47
2018-08-16T08:43:47.297Z,5.40
2018-08-16T08:46:15.782Z,5.67
2018-08-16T08:48:44.293Z,5.23
2018-08-16T08:51:12.749Z,7.60
2018-08-16T08:54:48.943Z,5.60
2018-08-16T08:57:23.222Z,4.87
2018-08-16T08:59:51.782Z,5.27
2018-08-16T09:02:20.261Z,5.63
2018-08-16T09:04:48.763Z,5.57
2018-08-16T09:07:18.398Z,5.40
2018-08-16T09:09:52.348Z,5.17
2018-08-16T09:12:26.385Z,5.20
2018-08-16T09:15:00.445Z,5.30
2018-08-16T09:17:28.913Z,5.47
2018-08-16T09:19:58.655Z,5.20
2018-08-16T09:22:27.120Z,5.30
2018-08-16T09:24:55.596Z,4.70
2018-08-16T09:27:24.056Z,5.17
2018-08-16T09:30:24.073Z,5.10
2018-08-16T09:32:58.256Z,5.03
2018-08-16T09:35:27.496Z,5.00
2018-08-16T09:37:56.113Z,5.53
2018-08-16T09:40:24.760Z,5.70
2018-08-16T09:42:53.433Z,5.50
2018-08-16T09:45:27.434Z,5.23
2018-08-16T09:48:01.344Z,5.30
2018-08-16T09:50:29.819Z,5.10
2018-08-16T09:52:58.315Z,4.97
2018-08-16T09:55:26.835Z,5.33
2018-08-16T09:57:55.315Z,5.47
2018-08-16T10:00:29.181Z,4.50
2018-08-16T10:02:57.695Z,4.20
2018-08-16T10:05:26.221Z,4.73
2018-08-16T10:07:54.941Z,4.90
2018-08-16T10:10:23.418Z,5.03
2018-08-16T10:12:52.016Z,4.50
2018-08-16T10:15:20.493Z,4.50
2018-08-16T10:17:48.969Z,4.23
2018-08-16T10:20:17.477Z,3.73
2018-08-16T10:22:46.076Z,3.83
2018-08-16T10:25:14.536Z,3.53
2018-08-16T10:27:43.657Z,4.03
2018-08-16T10:30:12.120Z,4.17
2018-08-16T10:32:40.601Z,3.50
2018-08-16T10:35:09.157Z,3.70
2018-08-16T10:37:37.621Z,3.20
2018-08-16T10:40:06.077Z,3.30
2018-08-16T10:42:34.588Z,3.47
2018-08-16T10:45:03.049Z,3.13
2018-08-16T10:47:31.524Z,2.90
2018-08-16T10:50:00.022Z,3.30
2018-08-16T10:52:28.525Z,3.00
2018-08-16T10:54:56.980Z,2.87
2018-08-16T10:57:25.466Z,3.50
2018-08-16T10:59:53.940Z,2.97
2018-08-16T11:02:22.405Z,3.33
2018-08-16T11:04:50.884Z,3.10
2018-08-16T11:07:19.431Z,3.17
2018-08-16T11:09:47.904Z,2.97
2018-08-16T11:12:16.383Z,3.00
2018-08-16T11:14:44.842Z,3.20
2018-08-16T11:17:13.386Z,3.50
2018-08-16T11:19:41.869Z,2.60
2018-08-16T11:22:10.342Z,3.00
2018-08-16T11:24:38.834Z,2.87
2018-08-16T11:27:07.401Z,2.50
2018-08-16T11:29:35.856Z,2.77
2018-08-16T11:32:04.350Z,2.97
2018-08-16T11:34:32.823Z,2.50
2018-08-16T11:37:01.310Z,2.97
2018-08-16T11:39:29.774Z,2.97
2018-08-16T11:41:58.256Z,3.47
2018-08-16T11:44:26.717Z,3.00
2018-08-16T11:46:55.201Z,2.93
2018-08-16T11:49:23.692Z,2.50
2018-08-16T11:51:52.326Z,2.70
2018-08-16T11:54:20.800Z,3.00
2018-08-16T11:56:49.257Z,2.90
2018-08-16T11:59:17.732Z,3.00
2018-08-16T12:01:46.212Z,3.13
2018-08-16T12:04:14.708Z,2.80
2018-08-16T12:06:43.320Z,3.07
2018-08-16T12:09:11.861Z,3.13
2018-08-16T12:11:40.309Z,3.53
2018-08-16T12:14:08.823Z,3.20
2018-08-16T12:16:38.041Z,3.47
2018-08-16T12:19:06.657Z,3.50
2018-08-16T12:21:35.096Z,2.80
2018-08-16T12:24:03.592Z,3.73
2018-08-16T12:26:32.075Z,3.80
2018-08-16T12:29:01.699Z,4.03
2018-08-16T12:31:30.100Z,3.33
2018-08-16T12:33:58.568Z,4.17
2018-08-16T12:36:27.017Z,3.23
2018-08-16T12:38:55.524Z,3.77
2018-08-16T12:41:24.010Z,6.23
2018-08-16T12:43:52.490Z,27.90
2018-08-16T12:46:20.980Z,45.93
2018-08-16T12:48:49.455Z,18.37
2018-08-16T12:51:18.327Z,12.17
2018-08-16T12:53:46.822Z,17.70
2018-08-16T12:56:15.346Z,7.57
2018-08-16T12:58:43.833Z,6.10
2018-08-16T13:01:12.599Z,9.23
2018-08-16T13:03:41.156Z,5.80
2018-08-16T13:06:09.696Z,5.00
2018-08-16T13:08:38.373Z,29.80
2018-08-16T13:11:06.852Z,18.57
2018-08-16T13:13:35.334Z,60.10
2018-08-16T13:16:03.871Z,11.63
2018-08-16T13:18:32.377Z,8.60
2018-08-16T13:21:00.978Z,12.73
2018-08-16T13:23:29.487Z,7.80
2018-08-16T13:25:57.945Z,5.93
2018-08-16T13:28:26.421Z,6.47
2018-08-16T13:30:54.948Z,5.07
2018-08-16T13:33:23.423Z,4.63
2018-08-16T13:35:51.917Z,5.40
2018-08-16T13:38:20.389Z,4.00
2018-08-16T13:40:48.882Z,5.03
2018-08-16T13:43:17.344Z,4.35
2018-08-16T13:45:46.433Z,2.60
2018-08-16T13:48:14.904Z,3.08
2018-08-16T13:50:43.357Z,3.97
2018-08-16T13:53:11.841Z,3.65
2018-08-16T13:55:40.337Z,3.02
2018-08-16T13:58:08.855Z,3.50
2018-08-16T14:00:37.339Z,2.87
2018-08-16T14:03:05.939Z,3.45
2018-08-16T14:05:34.581Z,3.22
2018-08-16T14:08:03.083Z,16.87
2018-08-16T14:10:31.602Z,36.35
2018-08-16T14:13:00.064Z,54.98
2018-08-16T14:15:28.557Z,16.60
2018-08-16T14:17:57.070Z,69.45
2018-08-16T14:20:25.571Z,60.95
2018-08-16T14:22:54.052Z,89.72
2018-08-16T14:25:22.605Z,48.52
2018-08-16T14:27:51.066Z,38.13
2018-08-16T14:30:19.553Z,17.37
2018-08-16T14:32:48.039Z,20.00
2018-08-16T14:35:16.534Z,11.80
2018-08-16T14:37:45.006Z,10.45
2018-08-16T14:40:13.548Z,8.53
2018-08-16T14:42:42.009Z,7.08
2018-08-16T14:45:10.513Z,8.88
2018-08-16T14:47:38.972Z,4.75
2018-08-16T14:50:07.514Z,6.50
2018-08-16T14:52:36.296Z,6.72
2018-08-16T14:55:05.014Z,4.78
2018-08-16T14:57:33.517Z,3.58
2018-08-16T15:00:02.010Z,4.75
2018-08-16T15:02:30.457Z,3.62
2018-08-16T15:04:58.932Z,3.67
2018-08-16T15:07:27.476Z,3.02
2018-08-16T15:09:55.932Z,3.62
2018-08-16T15:12:24.432Z,3.20
2018-08-16T15:14:52.880Z,3.22
2018-08-16T15:17:21.384Z,4.10
2018-08-16T15:19:49.849Z,4.30
2018-08-16T15:22:18.426Z,3.25
2018-08-16T15:24:46.873Z,3.05
2018-08-16T15:27:15.365Z,3.60
2018-08-16T15:29:43.837Z,3.12
2018-08-16T15:32:12.369Z,2.92
2018-08-16T15:34:40.782Z,3.30
2018-08-16T15:37:09.432Z,3.47
2018-08-16T15:39:37.949Z,3.75
2018-08-16T15:42:06.432Z,3.17
2018-08-16T15:44:34.933Z,3.12
2018-08-16T15:47:03.448Z,2.67
2018-08-16T15:49:31.954Z,3.20
2018-08-16T15:52:00.440Z,2.77
2018-08-16T15:54:28.895Z,3.37
2018-08-16T15:56:57.356Z,3.42
2018-08-16T15:59:25.853Z,3.87
2018-08-16T16:01:54.331Z,2.70
2018-08-16T16:04:22.804Z,3.45
2018-08-16T16:06:51.304Z,3.77
2018-08-16T16:09:19.829Z,3.10
2018-08-16T16:11:48.314Z,3.87
2018-08-16T16:14:16.767Z,3.95
2018-08-16T16:16:45.740Z,3.60
2018-08-16T16:19:14.177Z,3.00
2018-08-16T16:21:42.665Z,3.00
2018-08-16T16:24:11.204Z,3.17
2018-08-16T16:26:39.689Z,3.00
2018-08-16T16:29:08.143Z,3.08
2018-08-16T16:31:36.629Z,3.20
2018-08-16T16:34:05.125Z,3.30
2018-08-16T16:36:33.588Z,3.20
2018-08-16T16:39:02.057Z,2.98
2018-08-16T16:41:30.532Z,3.15
2018-08-16T16:43:59.007Z,3.10
2018-08-16T16:46:27.484Z,3.50
2018-08-16T16:48:55.964Z,3.60
2018-08-16T16:51:24.469Z,2.67
2018-08-16T16:53:52.925Z,2.90
2018-08-16T16:56:21.415Z,2.85
2018-08-16T16:58:49.921Z,3.22
2018-08-16T17:01:18.364Z,3.55
2018-08-16T17:03:46.835Z,3.05
2018-08-16T17:06:15.287Z,2.80
2018-08-16T17:08:43.793Z,2.80
2018-08-16T17:11:12.237Z,2.80
2018-08-16T17:13:40.717Z,3.42
2018-08-16T17:16:09.226Z,2.45
2018-08-16T17:18:37.653Z,3.15
2018-08-16T17:21:06.226Z,2.60
2018-08-16T17:23:34.738Z,3.40
2018-08-16T17:26:03.268Z,2.80
2018-08-16T17:28:31.697Z,3.50
2018-08-16T17:31:00.178Z,3.08
2018-08-16T17:33:28.649Z,3.00
2018-08-16T17:35:57.096Z,3.00
2018-08-16T17:38:25.559Z,3.00
2018-08-16T17:40:54.035Z,3.12
2018-08-16T17:43:22.496Z,3.25
2018-08-16T17:45:50.965Z,3.25
2018-08-16T17:48:19.443Z,2.80
2018-08-16T17:50:47.969Z,3.00
2018-08-16T17:53:16.451Z,2.87
2018-08-16T17:55:44.928Z,2.60
2018-08-16T17:58:13.414Z,2.50
2018-08-16T18:00:41.879Z,2.75
2018-08-16T18:03:10.351Z,3.02
2018-08-16T18:05:38.808Z,3.10
2018-08-16T18:08:07.320Z,3.55
2018-08-16T18:10:35.845Z,3.60
2018-08-16T18:13:04.306Z,3.37
2018-08-16T18:15:32.753Z,3.98
2018-08-16T18:18:01.228Z,3.77
2018-08-16T18:20:29.724Z,3.40
2018-08-16T18:22:58.181Z,3.47
2018-08-16T18:25:26.635Z,3.30
2018-08-16T18:27:55.108Z,3.65
2018-08-16T18:30:23.572Z,3.45
2018-08-16T18:32:52.145Z,3.80
2018-08-16T18:35:20.617Z,3.50
2018-08-16T18:37:49.093Z,3.33
2018-08-16T18:40:17.568Z,3.40
2018-08-16T18:42:46.048Z,3.00
2018-08-16T18:45:14.544Z,3.05
2018-08-16T18:47:42.999Z,3.67
2018-08-16T18:50:11.460Z,3.98
2018-08-16T18:52:39.919Z,4.22
2018-08-16T18:55:08.401Z,3.40
2018-08-16T18:57:36.893Z,3.75
2018-08-16T19:00:06.042Z,4.65
2018-08-16T19:02:34.965Z,3.95
2018-08-16T19:05:03.458Z,4.58
2018-08-16T19:07:31.981Z,4.17
2018-08-16T19:10:00.407Z,4.42
2018-08-16T19:12:28.889Z,3.98
2018-08-16T19:14:57.345Z,4.30
2018-08-16T19:17:25.801Z,5.22
2018-08-16T19:19:54.346Z,5.78
2018-08-16T19:22:22.790Z,4.62
2018-08-16T19:24:51.269Z,4.97
2018-08-16T19:27:19.760Z,4.92
2018-08-16T19:29:48.281Z,4.00
2018-08-16T19:32:16.768Z,3.80
2018-08-16T19:34:45.227Z,4.15
2018-08-16T19:37:13.694Z,4.50
2018-08-16T19:39:42.151Z,4.35
2018-08-16T19:42:10.650Z,4.50
2018-08-16T19:44:39.144Z,4.17
2018-08-16T19:47:07.620Z,4.10
2018-08-16T19:49:36.147Z,4.30
2018-08-16T19:52:04.992Z,3.80
2018-08-16T19:54:33.559Z,4.00
2018-08-16T19:57:02.501Z,3.70
2018-08-16T19:59:30.992Z,3.72
2018-08-16T20:01:59.523Z,4.12
2018-08-16T20:04:28.020Z,4.75
2018-08-16T20:06:56.500Z,3.40
2018-08-16T20:09:24.935Z,3.60
2018-08-16T20:11:53.436Z,3.60
2018-08-16T20:14:22.226Z,3.50
2018-08-16T20:16:50.712Z,3.77
2018-08-16T20:19:19.194Z,3.80
2018-08-16T20:21:47.640Z,4.10
2018-08-16T20:24:16.212Z,4.30
2018-08-16T20:26:44.616Z,4.58
2018-08-16T20:29:13.081Z,4.65
2018-08-16T20:31:43.612Z,4.62
2018-08-16T20:34:12.214Z,5.50
2018-08-16T20:36:40.713Z,5.42
2018-08-16T20:39:09.370Z,6.50
2018-08-16T20:41:37.875Z,6.30
2018-08-16T20:44:06.319Z,5.00
2018-08-16T20:46:34.843Z,4.33
2018-08-16T20:49:03.584Z,3.77
2018-08-16T20:51:32.105Z,4.50
2018-08-16T20:54:00.560Z,5.37
2018-08-16T20:56:29.015Z,4.97
2018-08-16T20:58:57.547Z,4.70
2018-08-16T21:01:26.074Z,4.50
2018-08-16T21:03:54.564Z,4.60
2018-08-16T21:06:23.132Z,4.60
2018-08-16T21:08:51.608Z,12.10
2018-08-16T21:11:20.975Z,32.53
2018-08-16T21:13:49.653Z,25.32
2018-08-16T21:16:18.220Z,34.85
2018-08-16T21:18:46.749Z,62.30
2018-08-16T21:21:15.243Z,46.80
2018-08-16T21:23:43.862Z,17.35
2018-08-16T21:26:12.411Z,16.87
2018-08-16T21:28:40.938Z,34.43
2018-08-16T21:31:09.421Z,24.07
2018-08-16T21:33:37.904Z,22.87
2018-08-16T21:36:06.399Z,6.87
2018-08-16T21:38:34.855Z,10.10
2018-08-16T21:41:03.372Z,24.37
2018-08-16T21:43:31.850Z,24.00
2018-08-16T21:46:00.339Z,25.07
2018-08-16T21:48:28.919Z,32.93
2018-08-16T21:50:57.422Z,62.93
2018-08-16T21:53:25.918Z,21.33
2018-08-16T21:55:54.412Z,38.77
2018-08-16T21:58:22.876Z,45.93
2018-08-16T22:00:55.189Z,17.30
2018-08-16T22:03:24.961Z,10.50
2018-08-16T22:05:56.228Z,8.63
2018-08-16T22:08:25.801Z,12.87
2018-08-16T22:10:54.331Z,10.63
2018-08-16T22:13:22.923Z,7.90
2018-08-16T22:15:51.458Z,8.77
2018-08-16T22:18:20.012Z,8.93
2018-08-16T22:20:48.479Z,9.10
2018-08-16T22:23:17.049Z,7.10
2018-08-16T22:25:45.532Z,7.50
2018-08-16T22:28:14.053Z,8.10
2018-08-16T22:30:42.549Z,6.80
2018-08-16T22:33:11.056Z,7.53
2018-08-16T22:35:39.515Z,6.90
2018-08-16T22:38:07.984Z,6.03
2018-08-16T22:40:36.501Z,6.40
2018-08-16T22:43:05.169Z,6.67
2018-08-16T22:45:33.669Z,17.43
2018-08-16T22:48:02.161Z,14.73
2018-08-16T22:50:30.669Z,12.47
2018-08-16T22:52:59.205Z,11.67
2018-08-16T22:55:27.652Z,11.13
2018-08-16T22:57:56.135Z,8.60
2018-08-16T23:00:24.640Z,7.63
2018-08-16T23:02:53.133Z,7.10
2018-08-16T23:05:21.631Z,7.20
2018-08-16T23:07:50.091Z,15.33
2018-08-16T23:10:18.885Z,56.50
2018-08-16T23:12:47.357Z,70.27
2018-08-16T23:15:16.035Z,64.67
2018-08-16T23:17:44.516Z,65.17
2018-08-16T23:20:13.019Z,23.47
2018-08-16T23:22:41.494Z,11.87
2018-08-16T23:25:09.999Z,13.53
2018-08-16T23:27:38.543Z,9.57
2018-08-16T23:30:08.500Z,5.57
2018-08-16T23:32:37.042Z,8.47
2018-08-16T23:35:05.498Z,5.37
2018-08-16T23:37:34.056Z,6.40
2018-08-16T23:40:02.541Z,7.37
2018-08-16T23:42:31.048Z,6.00
2018-08-16T23:44:59.505Z,5.40
2018-08-16T23:47:27.988Z,5.33
2018-08-16T23:49:56.462Z,4.63
2018-08-16T23:52:24.936Z,4.60
2018-08-16T23:54:53.387Z,5.20
2018-08-16T23:57:22.131Z,5.07
2018-08-16T23:59:50.614Z,5.40
